createdAt,value
2018-09-18T00:02:13.516Z,3.07
2018-09-18T00:04:41.465Z,3.57
2018-09-18T00:07:09.252Z,3.57
2018-09-18T00:09:37.065Z,3.60
2018-09-18T00:12:04.895Z,2.93
2018-09-18T00:14:33.267Z,3.20
2018-09-18T00:17:01.179Z,3.93
2018-09-18T00:19:29.065Z,3.07
2018-09-18T00:21:57.191Z,2.77
2018-09-18T00:24:24.976Z,2.80
2018-09-18T00:26:52.710Z,3.40
2018-09-18T00:29:20.509Z,3.30
2018-09-18T00:31:48.484Z,2.73
2018-09-18T00:34:16.345Z,3.27
2018-09-18T00:36:44.129Z,3.10
2018-09-18T00:39:11.875Z,2.80
2018-09-18T00:41:39.492Z,3.03
2018-09-18T00:44:07.289Z,2.93
2018-09-18T00:46:35.878Z,3.00
2018-09-18T00:49:03.761Z,2.63
2018-09-18T00:51:31.601Z,2.80
2018-09-18T00:53:59.311Z,2.70
2018-09-18T00:56:27.093Z,3.00
2018-09-18T00:58:54.770Z,3.00
2018-09-18T01:01:22.431Z,2.90
2018-09-18T01:03:50.603Z,2.87
2018-09-18T01:06:18.575Z,2.97
2018-09-18T01:08:46.320Z,3.00
2018-09-18T01:11:14.166Z,3.27
2018-09-18T01:13:42.235Z,3.20
2018-09-18T01:16:10.058Z,3.20
2018-09-18T01:18:38.718Z,2.70
2018-09-18T01:21:06.720Z,2.83
2018-09-18T01:23:34.600Z,2.90
2018-09-18T01:26:02.726Z,2.93
2018-09-18T01:28:30.581Z,3.30
2018-09-18T01:30:58.548Z,2.83
2018-09-18T01:33:26.235Z,2.93
2018-09-18T01:35:54.163Z,2.97
2018-09-18T01:38:22.271Z,3.43
2018-09-18T01:40:50.082Z,3.00
2018-09-18T01:43:18.188Z,3.53
2018-09-18T01:45:45.894Z,2.90
2018-09-18T01:48:13.656Z,3.20
2018-09-18T01:50:42.108Z,2.80
2018-09-18T01:53:09.749Z,2.80
2018-09-18T01:55:37.560Z,3.30
2018-09-18T01:58:05.545Z,2.80
2018-09-18T02:00:33.329Z,3.03
2018-09-18T02:03:01.120Z,3.00
2018-09-18T02:05:29.006Z,2.73
2018-09-18T02:07:56.922Z,2.87
2018-09-18T02:10:24.814Z,3.10
2018-09-18T02:12:52.735Z,3.33
2018-09-18T02:15:20.829Z,3.23
2018-09-18T02:17:48.693Z,3.13
2018-09-18T02:20:16.446Z,3.07
2018-09-18T02:22:44.240Z,2.93
2018-09-18T02:25:12.025Z,3.20
2018-09-18T02:27:39.789Z,3.03
2018-09-18T02:30:07.668Z,2.73
2018-09-18T02:32:35.842Z,2.80
2018-09-18T02:35:04.184Z,3.83
2018-09-18T02:37:32.082Z,2.90
2018-09-18T02:39:59.731Z,2.53
2018-09-18T02:42:28.263Z,3.40
2018-09-18T02:44:56.041Z,2.87
2018-09-18T02:47:23.806Z,2.80
2018-09-18T02:49:51.678Z,2.87
2018-09-18T02:52:19.646Z,2.87
2018-09-18T02:54:47.499Z,3.43
2018-09-18T02:57:15.360Z,2.87
2018-09-18T02:59:43.501Z,3.00
2018-09-18T03:02:11.244Z,2.90
2018-09-18T03:04:39.323Z,2.90
2018-09-18T03:07:07.292Z,3.10
2018-09-18T03:09:35.009Z,3.30
2018-09-18T03:12:02.867Z,3.33
2018-09-18T03:14:31.940Z,3.97
2018-09-18T03:16:59.687Z,3.57
2018-09-18T03:19:27.594Z,3.87
2018-09-18T03:21:55.407Z,3.17
2018-09-18T03:24:23.322Z,3.07
2018-09-18T03:26:51.148Z,3.40
2018-09-18T03:29:19.042Z,2.80
2018-09-18T03:31:46.829Z,3.40
2018-09-18T03:34:14.607Z,3.50
2018-09-18T03:36:42.327Z,3.47
2018-09-18T03:39:10.045Z,3.40
2018-09-18T03:41:37.911Z,3.63
2018-09-18T03:44:05.722Z,3.37
2018-09-18T03:46:34.221Z,3.60
2018-09-18T03:49:02.120Z,2.97
2018-09-18T03:51:29.784Z,3.23
2018-09-18T03:53:57.588Z,3.80
2018-09-18T03:56:25.381Z,3.40
2018-09-18T03:58:53.216Z,3.27
2018-09-18T04:01:21.012Z,3.33
2018-09-18T04:03:48.842Z,3.73
2018-09-18T04:06:16.817Z,3.80
2018-09-18T04:08:44.681Z,3.87
2018-09-18T04:11:12.604Z,3.10
2018-09-18T04:13:40.481Z,3.77
2018-09-18T04:16:08.308Z,3.73
2018-09-18T04:18:36.185Z,4.10
2018-09-18T04:21:03.949Z,3.43
2018-09-18T04:23:31.857Z,3.70
2018-09-18T04:25:59.825Z,3.70
2018-09-18T04:28:27.705Z,3.60
2018-09-18T04:30:55.882Z,3.53
2018-09-18T04:33:23.847Z,3.50
2018-09-18T04:35:51.691Z,3.90
2018-09-18T04:38:19.649Z,4.07
2018-09-18T04:40:47.520Z,4.07
2018-09-18T04:43:15.274Z,3.70
2018-09-18T04:45:43.317Z,4.10
2018-09-18T04:48:11.057Z,4.03
2018-09-18T04:50:38.929Z,3.67
2018-09-18T04:53:06.527Z,3.90
2018-09-18T04:55:34.287Z,4.50
2018-09-18T04:58:02.245Z,4.13
2018-09-18T05:00:30.356Z,3.80
2018-09-18T05:02:58.094Z,4.07
2018-09-18T05:05:25.864Z,3.87
2018-09-18T05:07:53.643Z,4.17
2018-09-18T05:10:21.529Z,3.67
2018-09-18T05:12:49.278Z,4.30
2018-09-18T05:15:17.104Z,3.63
2018-09-18T05:17:44.707Z,4.10
2018-09-18T05:20:12.593Z,4.50
2018-09-18T05:22:40.659Z,4.10
2018-09-18T05:25:08.571Z,4.67
2018-09-18T05:27:36.373Z,4.00
2018-09-18T05:30:04.542Z,4.50
2018-09-18T05:32:32.457Z,4.03
2018-09-18T05:35:00.353Z,4.70
2018-09-18T05:37:28.111Z,4.70
2018-09-18T05:39:55.784Z,4.80
2018-09-18T05:43:27.054Z,4.70
2018-09-18T05:45:54.876Z,4.33
2018-09-18T05:48:22.653Z,4.50
2018-09-18T05:50:50.354Z,5.13
2018-09-18T05:53:18.431Z,4.53
2018-09-18T05:55:46.381Z,4.73
2018-09-18T05:58:14.424Z,4.80
2018-09-18T06:00:42.694Z,4.57
2018-09-18T06:03:10.369Z,5.20
2018-09-18T06:05:38.251Z,5.80
2018-09-18T06:08:06.225Z,5.00
2018-09-18T06:10:34.372Z,5.47
2018-09-18T06:13:02.783Z,5.33
2018-09-18T06:15:30.648Z,5.17
2018-09-18T06:17:58.569Z,5.80
2018-09-18T06:20:26.269Z,6.40
2018-09-18T06:22:54.289Z,6.00
2018-09-18T06:25:22.173Z,5.97
2018-09-18T06:27:50.036Z,6.03
2018-09-18T06:30:17.870Z,5.90
2018-09-18T06:32:45.896Z,6.27
2018-09-18T06:35:13.787Z,6.30
2018-09-18T06:37:41.793Z,6.90
2018-09-18T06:40:10.213Z,6.90
2018-09-18T06:42:38.633Z,6.40
2018-09-18T06:45:07.014Z,6.20
2018-09-18T06:47:35.181Z,7.07
2018-09-18T06:50:04.974Z,7.07
2018-09-18T06:52:33.608Z,6.93
2018-09-18T06:55:01.981Z,6.40
2018-09-18T06:57:29.892Z,7.87
2018-09-18T06:59:57.822Z,6.93
2018-09-18T07:02:25.620Z,7.27
2018-09-18T07:04:53.718Z,7.10
2018-09-18T07:07:21.497Z,6.57
2018-09-18T07:09:49.341Z,7.83
2018-09-18T07:12:17.393Z,8.40
2018-09-18T07:14:46.249Z,7.63
2018-09-18T07:17:14.236Z,6.83
2018-09-18T07:19:42.110Z,7.03
2018-09-18T07:22:10.299Z,6.70
2018-09-18T07:24:38.118Z,6.60
2018-09-18T07:27:06.350Z,6.70
2018-09-18T07:29:34.285Z,7.43
2018-09-18T07:32:02.468Z,6.83
2018-09-18T07:34:30.277Z,7.20
2018-09-18T07:36:58.423Z,6.70
2018-09-18T07:39:26.391Z,7.67
2018-09-18T07:41:55.025Z,7.30
2018-09-18T07:44:23.161Z,6.90
2018-09-18T07:46:51.269Z,7.17
2018-09-18T07:49:19.451Z,7.67
2018-09-18T07:51:47.423Z,7.10
2018-09-18T07:54:15.435Z,6.33
2018-09-18T07:56:43.703Z,6.90
2018-09-18T07:59:11.624Z,6.77
2018-09-18T08:01:39.510Z,6.67
2018-09-18T08:04:07.281Z,6.73
2018-09-18T08:06:36.686Z,6.47
2018-09-18T08:09:07.914Z,6.60
2018-09-18T08:11:36.538Z,6.00
2018-09-18T08:14:04.879Z,5.80
2018-09-18T08:16:32.755Z,6.20
2018-09-18T08:19:00.824Z,5.50
2018-09-18T08:21:28.898Z,6.47
2018-09-18T08:26:39.428Z,5.70
2018-09-18T08:29:07.782Z,5.80
2018-09-18T08:31:36.383Z,5.60
2018-09-18T08:34:04.522Z,6.17
2018-09-18T08:36:32.522Z,5.80
2018-09-18T08:39:00.522Z,5.23
2018-09-18T08:41:28.692Z,5.63
2018-09-18T08:43:57.663Z,6.00
2018-09-18T08:46:25.386Z,6.17
2018-09-18T08:48:57.601Z,6.23
2018-09-18T08:51:25.837Z,5.73
2018-09-18T08:53:53.809Z,5.90
2018-09-18T08:56:21.770Z,5.53
2018-09-18T08:58:50.012Z,5.90
2018-09-18T09:01:17.745Z,5.63
2018-09-18T09:03:45.552Z,5.80
2018-09-18T09:06:13.541Z,5.57
2018-09-18T09:08:41.385Z,6.40
2018-09-18T09:11:09.260Z,5.60
2018-09-18T09:13:37.618Z,6.33
2018-09-18T09:16:05.555Z,6.20
2018-09-18T09:18:33.417Z,5.97
2018-09-18T09:21:01.404Z,5.60
2018-09-18T09:23:29.636Z,5.80
2018-09-18T09:25:57.412Z,6.00
2018-09-18T09:28:25.018Z,5.10
2018-09-18T09:30:52.715Z,5.20
2018-09-18T09:33:20.489Z,5.00
2018-09-18T09:35:48.478Z,4.77
2018-09-18T09:38:17.144Z,5.30
2018-09-18T09:40:45.352Z,5.13
2018-09-18T09:43:13.120Z,5.17
2018-09-18T09:45:41.567Z,6.50
2018-09-18T09:48:09.570Z,5.30
2018-09-18T09:50:37.920Z,5.33
2018-09-18T09:53:06.723Z,5.93
2018-09-18T09:55:34.818Z,4.80
2018-09-18T09:58:02.855Z,5.07
2018-09-18T10:00:36.479Z,5.47
2018-09-18T10:03:04.479Z,4.87
2018-09-18T10:05:32.357Z,5.37
2018-09-18T10:08:01.205Z,4.83
2018-09-18T10:10:30.161Z,5.07
2018-09-18T10:12:57.848Z,5.00
2018-09-18T10:15:26.370Z,5.23
2018-09-18T10:17:54.560Z,4.60
2018-09-18T10:20:22.301Z,5.30
2018-09-18T10:22:50.620Z,5.20
2018-09-18T10:25:18.385Z,5.23
2018-09-18T10:27:46.340Z,5.00
2018-09-18T10:30:14.334Z,5.50
2018-09-18T10:32:42.316Z,5.30
2018-09-18T10:35:10.160Z,5.10
2018-09-18T10:37:38.135Z,4.73
2018-09-18T10:40:06.172Z,4.50
2018-09-18T10:42:34.603Z,4.27
2018-09-18T10:45:02.948Z,5.10
2018-09-18T10:47:31.453Z,4.10
2018-09-18T10:49:59.927Z,4.30
2018-09-18T10:52:28.300Z,4.27
2018-09-18T10:55:09.280Z,4.90
2018-09-18T11:00:28.883Z,4.80
2018-09-18T11:02:57.673Z,4.77
2018-09-18T11:05:26.072Z,4.50
2018-09-18T11:07:54.403Z,4.13
2018-09-18T11:10:22.746Z,4.07
2018-09-18T11:12:51.452Z,5.00
2018-09-18T11:15:22.551Z,4.60
2018-09-18T11:17:50.932Z,4.63
2018-09-18T11:20:19.059Z,4.83
2018-09-18T11:22:47.958Z,4.00
2018-09-18T11:25:16.815Z,4.13
2018-09-18T11:27:45.866Z,4.50
2018-09-18T11:30:14.394Z,4.00
2018-09-18T11:32:43.506Z,4.70
2018-09-18T11:35:11.837Z,4.90
2018-09-18T11:37:40.260Z,4.40
2018-09-18T11:40:08.487Z,4.80
2018-09-18T11:42:36.924Z,4.23
2018-09-18T11:45:05.372Z,4.00
2018-09-18T11:47:34.001Z,4.67
2018-09-18T11:50:02.504Z,4.33
2018-09-18T11:52:31.107Z,4.03
2018-09-18T11:54:59.201Z,4.33
2018-09-18T11:57:27.608Z,4.70
2018-09-18T11:59:55.946Z,4.17
2018-09-18T12:02:24.159Z,4.20
2018-09-18T12:04:52.846Z,4.07
2018-09-18T12:07:21.678Z,3.70
2018-09-18T12:09:49.938Z,4.10
2018-09-18T12:12:18.164Z,4.53
2018-09-18T12:14:47.671Z,3.60
2018-09-18T12:17:17.325Z,3.53
2018-09-18T12:19:45.464Z,4.17
2018-09-18T12:22:14.035Z,4.50
2018-09-18T12:24:42.215Z,3.63
2018-09-18T12:27:10.564Z,3.83
2018-09-18T12:29:38.809Z,3.93
2018-09-18T12:32:07.703Z,3.90
2018-09-18T12:34:35.580Z,3.77
2018-09-18T12:37:04.810Z,3.80
2018-09-18T12:39:33.484Z,3.43
2018-09-18T12:42:01.691Z,3.40
2018-09-18T12:44:29.774Z,4.10
2018-09-18T12:46:58.315Z,3.13
2018-09-18T12:49:26.624Z,3.60
2018-09-18T12:51:55.030Z,3.93
2018-09-18T12:54:22.968Z,3.00
2018-09-18T12:56:51.701Z,3.77
2018-09-18T12:59:20.662Z,3.70
2018-09-18T13:01:48.765Z,3.70
2018-09-18T13:04:18.048Z,3.33
2018-09-18T13:06:46.299Z,3.20
2018-09-18T13:09:14.797Z,4.17
2018-09-18T13:11:45.195Z,3.30
2018-09-18T13:14:14.481Z,3.20
2018-09-18T13:16:42.349Z,3.70
2018-09-18T13:19:10.923Z,3.67
2018-09-18T13:21:39.318Z,3.30
2018-09-18T13:24:07.593Z,3.80
2018-09-18T13:26:36.795Z,3.27
2018-09-18T13:29:04.990Z,3.50
2018-09-18T13:31:33.410Z,2.90
2018-09-18T13:34:01.406Z,3.87
2018-09-18T13:36:29.434Z,4.00
2018-09-18T13:38:57.532Z,4.07
2018-09-18T13:41:25.859Z,3.60
2018-09-18T13:43:53.935Z,3.43
2018-09-18T13:46:23.368Z,3.40
2018-09-18T13:48:51.911Z,3.90
2018-09-18T13:51:20.495Z,3.93
2018-09-18T13:53:48.567Z,4.03
2018-09-18T13:56:16.960Z,3.40
2018-09-18T13:58:45.325Z,3.43
2018-09-18T14:01:13.984Z,3.60
2018-09-18T14:03:41.941Z,3.50
2018-09-18T14:06:11.205Z,3.40
2018-09-18T14:08:39.100Z,3.47
2018-09-18T14:11:07.129Z,3.90
2018-09-18T14:13:35.768Z,3.40
2018-09-18T14:16:03.782Z,3.80
2018-09-18T14:18:31.866Z,3.13
2018-09-18T14:20:59.819Z,3.70
2018-09-18T14:23:28.032Z,3.50
2018-09-18T14:25:56.264Z,4.17
2018-09-18T14:28:24.539Z,4.93
2018-09-18T14:30:53.252Z,3.70
2018-09-18T14:33:21.427Z,3.90
2018-09-18T14:35:49.493Z,3.70
2018-09-18T14:38:18.222Z,3.33
2018-09-18T14:40:46.351Z,3.63
2018-09-18T14:43:14.173Z,3.70
2018-09-18T14:45:42.378Z,3.53
2018-09-18T14:48:10.320Z,3.40
2018-09-18T14:50:38.441Z,3.50
2018-09-18T14:53:07.118Z,3.60
2018-09-18T14:55:35.263Z,3.37
2018-09-18T14:58:03.496Z,3.10
2018-09-18T15:00:31.487Z,3.40
2018-09-18T15:03:00.303Z,3.47
2018-09-18T15:05:28.117Z,3.60
2018-09-18T15:07:56.575Z,3.50
2018-09-18T15:10:24.902Z,3.53
2018-09-18T15:12:53.059Z,3.50
2018-09-18T15:15:21.252Z,3.30
2018-09-18T15:17:49.170Z,3.60
2018-09-18T15:20:16.972Z,3.60
2018-09-18T15:22:45.679Z,3.27
2018-09-18T15:25:13.671Z,3.80
2018-09-18T15:27:41.971Z,2.80
2018-09-18T15:30:10.880Z,3.57
2018-09-18T15:32:39.645Z,4.77
2018-09-18T15:35:07.659Z,3.50
2018-09-18T15:37:35.749Z,3.77
2018-09-18T15:40:04.016Z,3.93
2018-09-18T15:42:32.811Z,6.07
2018-09-18T15:45:00.780Z,3.73
2018-09-18T15:47:28.927Z,3.90
2018-09-18T15:49:57.033Z,3.70
2018-09-18T15:52:25.118Z,3.20
2018-09-18T15:54:53.216Z,3.47
2018-09-18T15:57:21.181Z,3.60
2018-09-18T15:59:49.611Z,3.07
2018-09-18T16:02:17.561Z,3.70
2018-09-18T16:04:46.946Z,2.90
2018-09-18T16:07:15.114Z,3.90
2018-09-18T16:09:43.394Z,3.70
2018-09-18T16:12:12.330Z,3.50
2018-09-18T16:14:41.126Z,3.87
2018-09-18T16:17:10.468Z,3.67
2018-09-18T16:19:39.095Z,3.40
2018-09-18T16:22:07.320Z,4.40
2018-09-18T16:24:35.443Z,4.10
2018-09-18T16:27:03.966Z,4.70
2018-09-18T16:29:32.376Z,5.00
2018-09-18T16:32:03.459Z,4.80
2018-09-18T16:34:32.041Z,4.20
2018-09-18T16:37:00.299Z,4.20
2018-09-18T16:39:28.760Z,4.50
2018-09-18T16:41:57.324Z,4.30
2018-09-18T16:44:28.147Z,4.37
2018-09-18T16:46:56.937Z,3.80
2018-09-18T16:49:24.853Z,4.10
2018-09-18T16:51:53.815Z,3.93
2018-09-18T16:54:22.501Z,3.77
2018-09-18T16:56:51.671Z,4.10
2018-09-18T16:59:20.746Z,3.97
2018-09-18T17:01:48.954Z,3.67
2018-09-18T17:04:18.593Z,4.00
2018-09-18T17:06:47.085Z,3.47
2018-09-18T17:09:16.467Z,3.70
2018-09-18T17:11:44.297Z,4.47
2018-09-18T17:14:12.990Z,5.50
2018-09-18T17:16:41.072Z,9.47
2018-09-18T17:19:09.181Z,6.60
2018-09-18T17:21:37.449Z,4.87
2018-09-18T17:24:05.489Z,4.73
2018-09-18T17:26:34.040Z,5.37
2018-09-18T17:29:02.511Z,4.10
2018-09-18T17:31:30.974Z,3.90
2018-09-18T17:33:59.206Z,4.30
2018-09-18T17:36:27.913Z,4.23
2018-09-18T17:38:56.606Z,4.17
2018-09-18T17:41:24.565Z,4.23
2018-09-18T17:43:53.031Z,5.20
2018-09-18T17:46:22.438Z,4.30
2018-09-18T17:48:51.768Z,4.93
2018-09-18T17:51:20.243Z,4.70
2018-09-18T17:53:49.621Z,3.90
2018-09-18T17:56:18.808Z,4.80
2018-09-18T17:58:46.883Z,4.40
2018-09-18T18:01:16.222Z,4.40
2018-09-18T18:03:44.405Z,5.20
2018-09-18T18:06:12.735Z,4.60
2018-09-18T18:08:40.903Z,4.57
2018-09-18T18:11:09.052Z,4.27
2018-09-18T18:13:37.763Z,4.70
2018-09-18T18:16:07.787Z,4.80
2018-09-18T18:18:36.511Z,4.93
2018-09-18T18:21:04.965Z,4.97
2018-09-18T18:23:33.328Z,4.83
2018-09-18T18:26:01.902Z,5.13
2018-09-18T18:28:30.147Z,4.70
2018-09-18T18:30:59.799Z,5.67
2018-09-18T18:33:31.054Z,4.90
2018-09-18T18:36:00.421Z,5.40
2018-09-18T18:38:28.839Z,5.30
2018-09-18T18:40:57.962Z,6.10
2018-09-18T18:43:26.492Z,5.07
2018-09-18T18:45:54.985Z,5.03
2018-09-18T18:48:23.515Z,5.13
2018-09-18T18:50:54.590Z,5.80
2018-09-18T18:53:23.949Z,6.60
2018-09-18T18:55:53.726Z,5.20
2018-09-18T18:58:24.018Z,5.87
2018-09-18T19:00:52.251Z,6.00
2018-09-18T19:03:20.263Z,5.17
2018-09-18T19:05:48.471Z,5.50
2018-09-18T19:08:17.280Z,5.20
2018-09-18T19:10:45.519Z,5.70
2018-09-18T19:13:14.870Z,4.97
2018-09-18T19:15:43.880Z,5.40
2018-09-18T19:18:12.964Z,6.43
2018-09-18T19:20:41.245Z,5.10
2018-09-18T19:23:11.676Z,6.00
2018-09-18T19:25:39.905Z,5.23
2018-09-18T19:28:07.994Z,5.77
2018-09-18T19:30:36.176Z,5.67
2018-09-18T19:33:05.011Z,5.43
2018-09-18T19:35:35.861Z,5.50
2018-09-18T19:38:05.818Z,5.93
2018-09-18T19:40:37.947Z,5.73
2018-09-18T19:43:07.985Z,6.33
2018-09-18T19:45:36.651Z,6.03
2018-09-18T19:48:05.062Z,5.87
2018-09-18T19:50:34.394Z,5.90
2018-09-18T19:53:04.234Z,5.30
2018-09-18T19:56:00.803Z,6.23
2018-09-18T19:58:29.862Z,5.60
2018-09-18T20:00:58.599Z,6.30
2018-09-18T20:03:26.781Z,7.00
2018-09-18T20:05:54.961Z,5.30
2018-09-18T20:08:23.759Z,6.03
2018-09-18T20:10:52.159Z,6.30
2018-09-18T20:13:20.376Z,6.07
2018-09-18T20:15:48.510Z,6.83
2018-09-18T20:18:16.479Z,5.90
2018-09-18T20:20:44.949Z,6.77
2018-09-18T20:23:12.923Z,6.00
2018-09-18T20:25:41.932Z,6.20
2018-09-18T20:28:10.261Z,6.47
2018-09-18T20:30:38.223Z,5.70
2018-09-18T20:33:06.450Z,5.90
2018-09-18T20:35:34.509Z,6.50
2018-09-18T20:38:02.615Z,5.60
2018-09-18T20:40:30.498Z,6.00
2018-09-18T20:42:58.719Z,6.17
2018-09-18T20:45:27.155Z,5.70
2018-09-18T20:47:55.535Z,5.87
2018-09-18T20:50:23.990Z,6.47
2018-09-18T20:52:54.988Z,6.13
2018-09-18T20:55:23.100Z,6.30
2018-09-18T20:57:52.399Z,6.40
2018-09-18T21:00:21.162Z,6.20
2018-09-18T21:02:49.553Z,5.73
2018-09-18T21:05:17.534Z,6.00
2018-09-18T21:07:45.821Z,6.30
2018-09-18T21:10:13.898Z,6.27
2018-09-18T21:12:41.953Z,5.80
2018-09-18T21:15:10.093Z,6.03
2018-09-18T21:18:41.207Z,5.70
2018-09-18T21:21:09.360Z,5.67
2018-09-18T21:23:37.277Z,6.67
2018-09-18T21:26:08.657Z,5.67
2018-09-18T21:28:36.767Z,5.33
2018-09-18T21:31:04.885Z,6.37
2018-09-18T21:33:32.810Z,6.00
2018-09-18T21:36:01.144Z,5.97
2018-09-18T21:38:29.679Z,6.13
2018-09-18T21:41:04.503Z,5.77
2018-09-18T21:43:32.775Z,5.83
2018-09-18T21:46:00.772Z,6.00
2018-09-18T21:48:28.821Z,5.80
2018-09-18T21:50:56.868Z,5.70
2018-09-18T21:53:24.605Z,6.07
2018-09-18T21:55:52.771Z,6.07
2018-09-18T21:58:21.055Z,6.10
2018-09-18T22:00:49.036Z,5.93
2018-09-18T22:03:17.102Z,6.10
2018-09-18T22:05:45.036Z,5.77
2018-09-18T22:08:13.066Z,6.07
2018-09-18T22:10:41.288Z,5.50
2018-09-18T22:13:09.588Z,5.93
2018-09-18T22:15:37.425Z,5.80
2018-09-18T22:18:05.778Z,5.40
2018-09-18T22:20:33.946Z,5.63
2018-09-18T22:23:01.885Z,5.93
2018-09-18T22:25:29.751Z,5.80
2018-09-18T22:27:57.688Z,6.40
2018-09-18T22:30:25.808Z,5.60
2018-09-18T22:32:54.239Z,5.43
2018-09-18T22:35:22.240Z,5.37
2018-09-18T22:37:50.230Z,5.80
2018-09-18T22:40:18.486Z,5.53
2018-09-18T22:42:46.678Z,5.60
2018-09-18T22:45:14.516Z,5.63
2018-09-18T22:47:42.642Z,5.80
2018-09-18T22:50:10.557Z,6.17
2018-09-18T22:52:39.115Z,5.50
2018-09-18T22:55:07.079Z,5.37
2018-09-18T22:57:35.090Z,6.33
2018-09-18T23:00:03.173Z,5.47
2018-09-18T23:03:34.472Z,6.13
2018-09-18T23:06:02.392Z,5.53
2018-09-18T23:08:30.606Z,5.33
2018-09-18T23:10:58.511Z,6.33
2018-09-18T23:13:26.593Z,6.07
2018-09-18T23:15:54.596Z,5.60
2018-09-18T23:18:22.642Z,5.47
2018-09-18T23:20:50.623Z,6.27
2018-09-18T23:23:18.594Z,5.90
2018-09-18T23:25:46.701Z,5.87
2018-09-18T23:28:14.910Z,6.17
2018-09-18T23:30:43.475Z,6.07
2018-09-18T23:33:11.501Z,5.67
2018-09-18T23:35:39.645Z,5.90
2018-09-18T23:38:07.892Z,5.27
2018-09-18T23:40:36.016Z,6.10
2018-09-18T23:43:03.751Z,6.17
2018-09-18T23:45:31.574Z,5.90
2018-09-18T23:47:59.482Z,6.17
2018-09-18T23:50:27.575Z,5.50
2018-09-18T23:52:55.659Z,5.37
2018-09-18T23:55:23.852Z,5.23
2018-09-18T23:57:52.033Z,5.50
